sensor_id;sensor_type;location;lat;lon;timestamp;temperature;humidity
21261;DHT22;10788;47.930;9.766;2022-12-05T00:03:56;0.90;99.90
21261;DHT22;10788;47.930;9.766;2022-12-05T00:06:23;0.90;99.90
21261;DHT22;10788;47.930;9.766;2022-12-05T00:08:49;1.00;99.90
21261;DHT22;10788;47.930;9.766;2022-12-05T00:11:21;1.00;99.90
21261;DHT22;10788;47.930;9.766;2022-12-05T00:13:47;1.00;99.90
21261;DHT22;10788;47.930;9.766;2022-12-05T00:16:16;1.00;99.90
21261;DHT22;10788;47.930;9.766;2022-12-05T00:18:42;1.00;99.90
21261;DHT22;10788;47.930;9.766;2022-12-05T00:21:15;1.00;99.90
21261;DHT22;10788;47.930;9.766;2022-12-05T00:23:41;1.00;99.90
21261;DHT22;10788;47.930;9.766;2022-12-05T00:26:08;1.00;99.90
21261;DHT22;10788;47.930;9.766;2022-12-05T00:28:34;1.00;99.90
21261;DHT22;10788;47.930;9.766;2022-12-05T00:31:05;1.00;99.90
21261;DHT22;10788;47.930;9.766;2022-12-05T00:33:31;1.00;99.90
21261;DHT22;10788;47.930;9.766;2022-12-05T00:36:01;0.90;99.90
21261;DHT22;10788;47.930;9.766;2022-12-05T00:38:27;0.90;99.90
21261;DHT22;10788;47.930;9.766;2022-12-05T00:40:52;0.90;99.90
21261;DHT22;10788;47.930;9.766;2022-12-05T00:43:18;0.80;99.90
21261;DHT22;10788;47.930;9.766;2022-12-05T00:45:44;0.80;99.90
21261;DHT22;10788;47.930;9.766;2022-12-05T00:48:09;0.80;99.90
21261;DHT22;10788;47.930;9.766;2022-12-05T00:50:35;0.80;99.90
21261;DHT22;10788;47.930;9.766;2022-12-05T00:53:00;0.90;99.90
21261;DHT22;10788;47.930;9.766;2022-12-05T00:55:26;0.90;99.90
21261;DHT22;10788;47.930;9.766;2022-12-05T00:57:51;0.80;99.90
21261;DHT22;10788;47.930;9.766;2022-12-05T01:00:17;0.90;99.90
21261;DHT22;10788;47.930;9.766;2022-12-05T01:02:43;0.90;99.90
21261;DHT22;10788;47.930;9.766;2022-12-05T01:05:09;1.00;99.90
21261;DHT22;10788;47.930;9.766;2022-12-05T01:07:34;0.90;99.90
21261;DHT22;10788;47.930;9.766;2022-12-05T01:10:00;0.90;99.90
21261;DHT22;10788;47.930;9.766;2022-12-05T01:12:25;0.90;99.90
21261;DHT22;10788;47.930;9.766;2022-12-05T01:14:53;0.90;99.90
21261;DHT22;10788;47.930;9.766;2022-12-05T01:17:19;1.00;99.90
21261;DHT22;10788;47.930;9.766;2022-12-05T01:19:45;0.90;99.90
21261;DHT22;10788;47.930;9.766;2022-12-05T01:22:10;0.90;99.90
21261;DHT22;10788;47.930;9.766;2022-12-05T01:24:36;1.00;99.90
21261;DHT22;10788;47.930;9.766;2022-12-05T01:27:01;1.00;99.90
21261;DHT22;10788;47.930;9.766;2022-12-05T01:29:27;1.00;99.90
21261;DHT22;10788;47.930;9.766;2022-12-05T01:31:53;1.00;99.90
21261;DHT22;10788;47.930;9.766;2022-12-05T01:34:19;1.10;99.90
21261;DHT22;10788;47.930;9.766;2022-12-05T01:36:45;1.10;99.90
21261;DHT22;10788;47.930;9.766;2022-12-05T01:39:12;1.10;99.90
21261;DHT22;10788;47.930;9.766;2022-12-05T01:41:43;1.00;99.90
21261;DHT22;10788;47.930;9.766;2022-12-05T01:46:45;1.10;99.90
21261;DHT22;10788;47.930;9.766;2022-12-05T01:49:16;1.00;99.90
21261;DHT22;10788;47.930;9.766;2022-12-05T01:51:48;1.10;99.90
21261;DHT22;10788;47.930;9.766;2022-12-05T01:54:16;1.10;99.90
21261;DHT22;10788;47.930;9.766;2022-12-05T01:56:45;1.10;99.90
21261;DHT22;10788;47.930;9.766;2022-12-05T01:59:12;1.10;99.90
21261;DHT22;10788;47.930;9.766;2022-12-05T02:01:38;1.10;99.90
21261;DHT22;10788;47.930;9.766;2022-12-05T02:04:06;1.10;99.90
21261;DHT22;10788;47.930;9.766;2022-12-05T02:06:32;1.10;99.90
21261;DHT22;10788;47.930;9.766;2022-12-05T02:08:58;1.20;99.90
21261;DHT22;10788;47.930;9.766;2022-12-05T02:11:26;1.20;99.90
21261;DHT22;10788;47.930;9.766;2022-12-05T02:24:52;1.20;99.90
21261;DHT22;10788;47.930;9.766;2022-12-05T02:35:38;1.20;99.90
21261;DHT22;10788;47.930;9.766;2022-12-05T02:43:59;1.20;99.90
21261;DHT22;10788;47.930;9.766;2022-12-05T02:46:29;1.20;99.90
21261;DHT22;10788;47.930;9.766;2022-12-05T02:48:59;1.30;99.90
21261;DHT22;10788;47.930;9.766;2022-12-05T02:51:29;1.20;99.90
21261;DHT22;10788;47.930;9.766;2022-12-05T02:53:58;1.20;99.90
21261;DHT22;10788;47.930;9.766;2022-12-05T02:56:26;1.20;99.90
21261;DHT22;10788;47.930;9.766;2022-12-05T02:58:54;1.20;99.90
21261;DHT22;10788;47.930;9.766;2022-12-05T03:01:23;1.30;99.90
21261;DHT22;10788;47.930;9.766;2022-12-05T03:03:49;1.30;99.90
21261;DHT22;10788;47.930;9.766;2022-12-05T03:08:54;1.30;99.90
21261;DHT22;10788;47.930;9.766;2022-12-05T03:11:23;1.30;99.90
21261;DHT22;10788;47.930;9.766;2022-12-05T03:13:55;1.30;99.90
21261;DHT22;10788;47.930;9.766;2022-12-05T03:16:28;1.30;99.90
21261;DHT22;10788;47.930;9.766;2022-12-05T03:18:59;1.30;99.90
21261;DHT22;10788;47.930;9.766;2022-12-05T03:21:38;1.40;99.90
21261;DHT22;10788;47.930;9.766;2022-12-05T03:24:11;1.40;99.90
21261;DHT22;10788;47.930;9.766;2022-12-05T03:29:20;1.50;99.90
21261;DHT22;10788;47.930;9.766;2022-12-05T03:31:52;1.40;99.90
21261;DHT22;10788;47.930;9.766;2022-12-05T03:34:48;1.50;99.90
21261;DHT22;10788;47.930;9.766;2022-12-05T03:39:51;1.60;99.90
21261;DHT22;10788;47.930;9.766;2022-12-05T03:42:28;1.60;99.90
21261;DHT22;10788;47.930;9.766;2022-12-05T03:45:26;1.70;99.90
21261;DHT22;10788;47.930;9.766;2022-12-05T03:48:06;1.60;99.90
21261;DHT22;10788;47.930;9.766;2022-12-05T03:50:36;1.60;99.90
21261;DHT22;10788;47.930;9.766;2022-12-05T03:53:07;1.50;99.90
21261;DHT22;10788;47.930;9.766;2022-12-05T03:55:37;1.50;99.90
21261;DHT22;10788;47.930;9.766;2022-12-05T03:58:22;1.60;99.90
21261;DHT22;10788;47.930;9.766;2022-12-05T04:00:51;1.50;99.90
21261;DHT22;10788;47.930;9.766;2022-12-05T04:03:45;1.60;99.90
21261;DHT22;10788;47.930;9.766;2022-12-05T04:08:57;1.70;99.90
21261;DHT22;10788;47.930;9.766;2022-12-05T04:11:27;1.70;99.90
21261;DHT22;10788;47.930;9.766;2022-12-05T04:14:10;1.70;99.90
21261;DHT22;10788;47.930;9.766;2022-12-05T04:16:44;1.70;99.90
21261;DHT22;10788;47.930;9.766;2022-12-05T04:22:22;1.70;99.90
21261;DHT22;10788;47.930;9.766;2022-12-05T04:24:50;1.70;99.90
21261;DHT22;10788;47.930;9.766;2022-12-05T04:27:47;1.70;99.90
21261;DHT22;10788;47.930;9.766;2022-12-05T04:30:21;1.70;99.90
21261;DHT22;10788;47.930;9.766;2022-12-05T04:33:07;1.70;99.90
21261;DHT22;10788;47.930;9.766;2022-12-05T04:35:51;1.60;99.90
21261;DHT22;10788;47.930;9.766;2022-12-05T04:41:03;1.70;99.90
21261;DHT22;10788;47.930;9.766;2022-12-05T04:43:36;1.70;99.90
21261;DHT22;10788;47.930;9.766;2022-12-05T04:46:05;1.60;99.90
21261;DHT22;10788;47.930;9.766;2022-12-05T04:48:36;1.60;99.90
21261;DHT22;10788;47.930;9.766;2022-12-05T04:51:03;1.70;99.90
21261;DHT22;10788;47.930;9.766;2022-12-05T04:53:31;1.70;99.90
21261;DHT22;10788;47.930;9.766;2022-12-05T04:55:59;1.70;99.90
21261;DHT22;10788;47.930;9.766;2022-12-05T04:58:26;1.70;99.90
21261;DHT22;10788;47.930;9.766;2022-12-05T05:01:17;1.70;99.90
21261;DHT22;10788;47.930;9.766;2022-12-05T05:03:53;1.70;99.90
21261;DHT22;10788;47.930;9.766;2022-12-05T05:06:19;1.80;99.90
21261;DHT22;10788;47.930;9.766;2022-12-05T05:08:47;1.80;99.90
21261;DHT22;10788;47.930;9.766;2022-12-05T05:11:26;1.80;99.90
21261;DHT22;10788;47.930;9.766;2022-12-05T05:13:53;1.80;99.90
21261;DHT22;10788;47.930;9.766;2022-12-05T05:16:21;1.80;99.90
21261;DHT22;10788;47.930;9.766;2022-12-05T05:18:48;1.80;99.90
21261;DHT22;10788;47.930;9.766;2022-12-05T05:21:29;1.80;99.90
21261;DHT22;10788;47.930;9.766;2022-12-05T05:23:55;1.70;99.90
21261;DHT22;10788;47.930;9.766;2022-12-05T05:26:22;1.70;99.90
21261;DHT22;10788;47.930;9.766;2022-12-05T05:28:48;1.70;99.90
21261;DHT22;10788;47.930;9.766;2022-12-05T05:31:14;1.80;99.90
21261;DHT22;10788;47.930;9.766;2022-12-05T05:33:40;1.70;99.90
21261;DHT22;10788;47.930;9.766;2022-12-05T05:36:11;1.70;99.90
21261;DHT22;10788;47.930;9.766;2022-12-05T05:38:41;1.70;99.90
21261;DHT22;10788;47.930;9.766;2022-12-05T05:41:21;1.70;99.90
21261;DHT22;10788;47.930;9.766;2022-12-05T05:43:47;1.70;99.90
21261;DHT22;10788;47.930;9.766;2022-12-05T05:46:14;1.70;99.90
21261;DHT22;10788;47.930;9.766;2022-12-05T05:48:39;1.80;99.90
21261;DHT22;10788;47.930;9.766;2022-12-05T05:51:07;1.70;99.90
21261;DHT22;10788;47.930;9.766;2022-12-05T05:53:33;1.70;99.90
21261;DHT22;10788;47.930;9.766;2022-12-05T05:56:07;1.70;99.90
21261;DHT22;10788;47.930;9.766;2022-12-05T05:58:33;1.70;99.90
21261;DHT22;10788;47.930;9.766;2022-12-05T06:01:07;1.70;99.90
21261;DHT22;10788;47.930;9.766;2022-12-05T06:03:33;1.70;99.90
21261;DHT22;10788;47.930;9.766;2022-12-05T06:06:01;1.80;99.90
21261;DHT22;10788;47.930;9.766;2022-12-05T06:08:29;1.80;99.90
21261;DHT22;10788;47.930;9.766;2022-12-05T06:10:55;1.90;99.90
21261;DHT22;10788;47.930;9.766;2022-12-05T06:13:21;1.90;99.90
21261;DHT22;10788;47.930;9.766;2022-12-05T06:15:46;1.90;99.90
21261;DHT22;10788;47.930;9.766;2022-12-05T06:18:12;1.90;99.90
21261;DHT22;10788;47.930;9.766;2022-12-05T06:20:38;1.90;99.90
21261;DHT22;10788;47.930;9.766;2022-12-05T06:23:03;1.90;99.90
21261;DHT22;10788;47.930;9.766;2022-12-05T06:25:29;1.90;99.90
21261;DHT22;10788;47.930;9.766;2022-12-05T06:27:54;2.00;99.90
21261;DHT22;10788;47.930;9.766;2022-12-05T06:30:20;2.00;99.90
21261;DHT22;10788;47.930;9.766;2022-12-05T06:32:46;2.00;99.90
21261;DHT22;10788;47.930;9.766;2022-12-05T06:35:11;2.00;99.90
21261;DHT22;10788;47.930;9.766;2022-12-05T06:37:44;2.10;99.90
21261;DHT22;10788;47.930;9.766;2022-12-05T06:40:11;2.10;99.90
21261;DHT22;10788;47.930;9.766;2022-12-05T06:42:37;2.10;99.90
21261;DHT22;10788;47.930;9.766;2022-12-05T06:45:04;2.10;99.90
21261;DHT22;10788;47.930;9.766;2022-12-05T06:47:30;2.10;99.90
21261;DHT22;10788;47.930;9.766;2022-12-05T06:49:56;2.10;99.90
21261;DHT22;10788;47.930;9.766;2022-12-05T06:52:21;2.10;99.90
21261;DHT22;10788;47.930;9.766;2022-12-05T06:54:47;2.20;99.90
21261;DHT22;10788;47.930;9.766;2022-12-05T06:57:13;2.20;99.90
21261;DHT22;10788;47.930;9.766;2022-12-05T06:59:38;2.20;99.90
21261;DHT22;10788;47.930;9.766;2022-12-05T07:02:04;2.20;99.90
21261;DHT22;10788;47.930;9.766;2022-12-05T07:04:33;2.10;99.90
21261;DHT22;10788;47.930;9.766;2022-12-05T07:06:59;2.20;99.90
21261;DHT22;10788;47.930;9.766;2022-12-05T07:09:27;2.20;99.90
21261;DHT22;10788;47.930;9.766;2022-12-05T07:12:15;2.20;99.90
21261;DHT22;10788;47.930;9.766;2022-12-05T07:14:41;2.20;99.90
21261;DHT22;10788;47.930;9.766;2022-12-05T07:17:07;2.20;99.90
21261;DHT22;10788;47.930;9.766;2022-12-05T07:19:32;2.20;99.90
21261;DHT22;10788;47.930;9.766;2022-12-05T07:21:58;2.30;99.90
21261;DHT22;10788;47.930;9.766;2022-12-05T07:24:24;2.20;99.90
21261;DHT22;10788;47.930;9.766;2022-12-05T07:26:49;2.20;99.90
21261;DHT22;10788;47.930;9.766;2022-12-05T07:29:15;2.20;99.90
21261;DHT22;10788;47.930;9.766;2022-12-05T07:31:40;2.20;99.90
21261;DHT22;10788;47.930;9.766;2022-12-05T07:34:06;2.20;99.90
21261;DHT22;10788;47.930;9.766;2022-12-05T07:36:31;2.20;99.90
21261;DHT22;10788;47.930;9.766;2022-12-05T07:38:57;2.40;99.90
21261;DHT22;10788;47.930;9.766;2022-12-05T07:41:27;2.40;99.90
21261;DHT22;10788;47.930;9.766;2022-12-05T07:43:55;2.40;99.90
21261;DHT22;10788;47.930;9.766;2022-12-05T07:46:21;2.40;99.90
21261;DHT22;10788;47.930;9.766;2022-12-05T07:48:47;2.40;99.90
21261;DHT22;10788;47.930;9.766;2022-12-05T07:51:15;2.50;99.90
21261;DHT22;10788;47.930;9.766;2022-12-05T07:53:41;2.50;99.90
21261;DHT22;10788;47.930;9.766;2022-12-05T07:56:10;2.60;99.90
21261;DHT22;10788;47.930;9.766;2022-12-05T07:58:36;2.60;99.90
21261;DHT22;10788;47.930;9.766;2022-12-05T08:01:18;2.70;99.90
21261;DHT22;10788;47.930;9.766;2022-12-05T08:03:44;2.70;99.90
21261;DHT22;10788;47.930;9.766;2022-12-05T08:06:13;2.80;99.90
21261;DHT22;10788;47.930;9.766;2022-12-05T08:08:38;2.90;99.90
21261;DHT22;10788;47.930;9.766;2022-12-05T08:11:07;2.90;99.90
21261;DHT22;10788;47.930;9.766;2022-12-05T08:13:33;2.90;99.90
21261;DHT22;10788;47.930;9.766;2022-12-05T08:16:08;2.90;99.90
21261;DHT22;10788;47.930;9.766;2022-12-05T08:18:34;2.90;99.90
21261;DHT22;10788;47.930;9.766;2022-12-05T08:21:09;2.90;99.90
21261;DHT22;10788;47.930;9.766;2022-12-05T08:23:35;2.90;99.90
21261;DHT22;10788;47.930;9.766;2022-12-05T08:26:22;2.90;99.90
21261;DHT22;10788;47.930;9.766;2022-12-05T08:29:04;2.90;99.90
21261;DHT22;10788;47.930;9.766;2022-12-05T08:31:32;3.00;99.90
21261;DHT22;10788;47.930;9.766;2022-12-05T08:33:59;3.00;99.90
21261;DHT22;10788;47.930;9.766;2022-12-05T08:36:26;2.90;99.90
21261;DHT22;10788;47.930;9.766;2022-12-05T08:38:57;3.00;99.90
21261;DHT22;10788;47.930;9.766;2022-12-05T08:41:23;3.00;99.90
21261;DHT22;10788;47.930;9.766;2022-12-05T08:43:53;3.00;99.90
21261;DHT22;10788;47.930;9.766;2022-12-05T08:46:19;3.00;99.90
21261;DHT22;10788;47.930;9.766;2022-12-05T08:48:44;3.10;99.90
21261;DHT22;10788;47.930;9.766;2022-12-05T08:51:11;3.10;99.90
21261;DHT22;10788;47.930;9.766;2022-12-05T08:53:38;3.10;99.90
21261;DHT22;10788;47.930;9.766;2022-12-05T08:56:06;3.10;99.90
21261;DHT22;10788;47.930;9.766;2022-12-05T08:58:32;3.10;99.90
21261;DHT22;10788;47.930;9.766;2022-12-05T09:01:08;3.20;99.90
21261;DHT22;10788;47.930;9.766;2022-12-05T09:03:34;3.10;99.90
21261;DHT22;10788;47.930;9.766;2022-12-05T09:06:20;3.00;99.90
21261;DHT22;10788;47.930;9.766;2022-12-05T09:08:46;3.10;99.90
21261;DHT22;10788;47.930;9.766;2022-12-05T09:11:18;3.10;99.90
21261;DHT22;10788;47.930;9.766;2022-12-05T09:13:44;3.00;99.90
21261;DHT22;10788;47.930;9.766;2022-12-05T09:16:16;3.00;99.90
21261;DHT22;10788;47.930;9.766;2022-12-05T09:18:42;3.10;99.90
21261;DHT22;10788;47.930;9.766;2022-12-05T09:21:10;3.10;99.90
21261;DHT22;10788;47.930;9.766;2022-12-05T09:23:36;3.10;99.90
21261;DHT22;10788;47.930;9.766;2022-12-05T09:26:03;3.10;99.90
21261;DHT22;10788;47.930;9.766;2022-12-05T09:28:30;3.10;99.90
21261;DHT22;10788;47.930;9.766;2022-12-05T09:31:00;3.10;99.90
21261;DHT22;10788;47.930;9.766;2022-12-05T09:33:30;3.10;99.90
21261;DHT22;10788;47.930;9.766;2022-12-05T09:35:56;3.10;99.90
21261;DHT22;10788;47.930;9.766;2022-12-05T09:38:22;3.10;99.90
21261;DHT22;10788;47.930;9.766;2022-12-05T09:46:14;2.90;99.90
21261;DHT22;10788;47.930;9.766;2022-12-05T09:48:42;2.90;99.90
21261;DHT22;10788;47.930;9.766;2022-12-05T09:51:10;2.80;99.90
21261;DHT22;10788;47.930;9.766;2022-12-05T09:53:42;2.80;99.90
21261;DHT22;10788;47.930;9.766;2022-12-05T09:59:03;2.80;99.90
21261;DHT22;10788;47.930;9.766;2022-12-05T10:12:53;2.80;99.90
21261;DHT22;10788;47.930;9.766;2022-12-05T10:15:29;2.90;99.90
21261;DHT22;10788;47.930;9.766;2022-12-05T10:24:36;2.80;99.90
21261;DHT22;10788;47.930;9.766;2022-12-05T10:27:05;2.80;99.90
21261;DHT22;10788;47.930;9.766;2022-12-05T10:29:44;2.80;99.90
21261;DHT22;10788;47.930;9.766;2022-12-05T10:32:18;2.70;99.90
21261;DHT22;10788;47.930;9.766;2022-12-05T10:34:46;2.70;99.90
21261;DHT22;10788;47.930;9.766;2022-12-05T10:37:18;2.70;99.90
21261;DHT22;10788;47.930;9.766;2022-12-05T10:39:45;2.80;99.90
21261;DHT22;10788;47.930;9.766;2022-12-05T10:42:14;2.80;99.90
21261;DHT22;10788;47.930;9.766;2022-12-05T10:44:41;2.80;99.90
21261;DHT22;10788;47.930;9.766;2022-12-05T10:47:07;2.80;99.90
21261;DHT22;10788;47.930;9.766;2022-12-05T10:49:33;2.70;99.90
21261;DHT22;10788;47.930;9.766;2022-12-05T10:51:59;2.80;99.90
21261;DHT22;10788;47.930;9.766;2022-12-05T10:54:29;2.80;99.90
21261;DHT22;10788;47.930;9.766;2022-12-05T10:56:56;2.70;99.90
21261;DHT22;10788;47.930;9.766;2022-12-05T10:59:24;2.80;99.90
21261;DHT22;10788;47.930;9.766;2022-12-05T11:01:55;2.80;99.90
21261;DHT22;10788;47.930;9.766;2022-12-05T11:04:25;2.80;99.90
21261;DHT22;10788;47.930;9.766;2022-12-05T11:09:23;2.80;99.90
21261;DHT22;10788;47.930;9.766;2022-12-05T11:14:25;2.80;99.90
21261;DHT22;10788;47.930;9.766;2022-12-05T11:16:56;2.80;99.90
21261;DHT22;10788;47.930;9.766;2022-12-05T11:21:57;3.00;99.90
21261;DHT22;10788;47.930;9.766;2022-12-05T11:27:18;3.10;99.90
21261;DHT22;10788;47.930;9.766;2022-12-05T11:30:03;3.20;99.90
21261;DHT22;10788;47.930;9.766;2022-12-05T11:32:39;3.20;99.90
21261;DHT22;10788;47.930;9.766;2022-12-05T11:35:26;3.30;99.90
21261;DHT22;10788;47.930;9.766;2022-12-05T11:38:00;3.20;99.90
21261;DHT22;10788;47.930;9.766;2022-12-05T12:49:26;3.40;99.90
21261;DHT22;10788;47.930;9.766;2022-12-05T13:26:11;3.20;99.90
21261;DHT22;10788;47.930;9.766;2022-12-05T13:32:45;3.20;99.90
21261;DHT22;10788;47.930;9.766;2022-12-05T13:35:29;3.20;99.90
21261;DHT22;10788;47.930;9.766;2022-12-05T13:38:39;3.20;99.90
21261;DHT22;10788;47.930;9.766;2022-12-05T13:58:57;3.40;99.90
21261;DHT22;10788;47.930;9.766;2022-12-05T14:01:40;3.40;99.90
21261;DHT22;10788;47.930;9.766;2022-12-05T14:07:54;3.40;99.90
21261;DHT22;10788;47.930;9.766;2022-12-05T14:12:53;3.40;99.90
21261;DHT22;10788;47.930;9.766;2022-12-05T14:15:36;3.40;99.90
21261;DHT22;10788;47.930;9.766;2022-12-05T14:20:51;3.50;99.90
21261;DHT22;10788;47.930;9.766;2022-12-05T14:33:42;3.40;99.90
21261;DHT22;10788;47.930;9.766;2022-12-05T14:36:15;3.40;99.90
21261;DHT22;10788;47.930;9.766;2022-12-05T14:38:43;3.40;99.90
21261;DHT22;10788;47.930;9.766;2022-12-05T14:41:23;3.50;99.90
21261;DHT22;10788;47.930;9.766;2022-12-05T14:43:53;3.50;99.90
21261;DHT22;10788;47.930;9.766;2022-12-05T14:46:26;3.50;99.90
21261;DHT22;10788;47.930;9.766;2022-12-05T14:48:53;3.50;99.90
21261;DHT22;10788;47.930;9.766;2022-12-05T14:51:44;3.60;99.90
21261;DHT22;10788;47.930;9.766;2022-12-05T14:54:19;3.50;99.90
21261;DHT22;10788;47.930;9.766;2022-12-05T14:56:59;3.50;99.90
21261;DHT22;10788;47.930;9.766;2022-12-05T14:59:33;3.40;99.90
21261;DHT22;10788;47.930;9.766;2022-12-05T15:02:02;3.40;99.90
21261;DHT22;10788;47.930;9.766;2022-12-05T15:04:43;3.40;99.90
21261;DHT22;10788;47.930;9.766;2022-12-05T15:07:21;3.40;99.90
21261;DHT22;10788;47.930;9.766;2022-12-05T15:10:03;3.40;99.90
21261;DHT22;10788;47.930;9.766;2022-12-05T15:17:44;3.40;99.90
21261;DHT22;10788;47.930;9.766;2022-12-05T15:20:18;3.30;99.90
21261;DHT22;10788;47.930;9.766;2022-12-05T15:22:45;3.30;99.90
21261;DHT22;10788;47.930;9.766;2022-12-05T15:25:31;3.30;99.90
21261;DHT22;10788;47.930;9.766;2022-12-05T15:28:01;3.20;99.90
21261;DHT22;10788;47.930;9.766;2022-12-05T15:30:28;3.20;99.90
21261;DHT22;10788;47.930;9.766;2022-12-05T15:32:54;3.20;99.90
21261;DHT22;10788;47.930;9.766;2022-12-05T15:35:22;3.20;99.90
21261;DHT22;10788;47.930;9.766;2022-12-05T15:37:56;3.20;99.90
21261;DHT22;10788;47.930;9.766;2022-12-05T15:40:23;3.20;99.90
21261;DHT22;10788;47.930;9.766;2022-12-05T15:42:55;3.20;99.90
21261;DHT22;10788;47.930;9.766;2022-12-05T15:45:29;3.20;99.90
21261;DHT22;10788;47.930;9.766;2022-12-05T15:48:15;3.20;99.90
21261;DHT22;10788;47.930;9.766;2022-12-05T15:50:48;3.20;99.90
21261;DHT22;10788;47.930;9.766;2022-12-05T15:53:36;3.10;99.90
21261;DHT22;10788;47.930;9.766;2022-12-05T16:01:17;3.00;99.90
21261;DHT22;10788;47.930;9.766;2022-12-05T16:06:47;2.90;99.90
21261;DHT22;10788;47.930;9.766;2022-12-05T16:09:17;2.90;99.90
21261;DHT22;10788;47.930;9.766;2022-12-05T16:12:23;2.90;99.90
21261;DHT22;10788;47.930;9.766;2022-12-05T16:14:53;2.80;99.90
21261;DHT22;10788;47.930;9.766;2022-12-05T16:17:20;2.90;99.90
21261;DHT22;10788;47.930;9.766;2022-12-05T16:19:46;2.90;99.90
21261;DHT22;10788;47.930;9.766;2022-12-05T16:24:54;2.80;99.90
21261;DHT22;10788;47.930;9.766;2022-12-05T16:27:28;2.80;99.90
21261;DHT22;10788;47.930;9.766;2022-12-05T16:32:41;2.70;99.90
21261;DHT22;10788;47.930;9.766;2022-12-05T16:35:46;2.70;99.90
21261;DHT22;10788;47.930;9.766;2022-12-05T16:38:23;2.60;99.90
21261;DHT22;10788;47.930;9.766;2022-12-05T16:40:59;2.60;99.90
21261;DHT22;10788;47.930;9.766;2022-12-05T16:46:06;2.60;99.90
21261;DHT22;10788;47.930;9.766;2022-12-05T16:48:46;2.50;99.90
21261;DHT22;10788;47.930;9.766;2022-12-05T16:56:16;2.50;99.90
21261;DHT22;10788;47.930;9.766;2022-12-05T16:58:43;2.40;99.90
21261;DHT22;10788;47.930;9.766;2022-12-05T17:01:25;2.40;99.90
21261;DHT22;10788;47.930;9.766;2022-12-05T17:03:52;2.40;99.90
21261;DHT22;10788;47.930;9.766;2022-12-05T17:06:19;2.50;99.90
21261;DHT22;10788;47.930;9.766;2022-12-05T17:08:49;2.30;99.90
21261;DHT22;10788;47.930;9.766;2022-12-05T17:11:34;2.30;99.90
21261;DHT22;10788;47.930;9.766;2022-12-05T17:14:01;2.20;99.90
21261;DHT22;10788;47.930;9.766;2022-12-05T17:16:27;2.20;99.90
21261;DHT22;10788;47.930;9.766;2022-12-05T17:18:53;2.20;99.90
21261;DHT22;10788;47.930;9.766;2022-12-05T17:21:21;2.20;99.90
21261;DHT22;10788;47.930;9.766;2022-12-05T17:23:48;2.20;99.90
21261;DHT22;10788;47.930;9.766;2022-12-05T17:26:18;2.20;99.90
21261;DHT22;10788;47.930;9.766;2022-12-05T17:28:45;2.20;99.90
21261;DHT22;10788;47.930;9.766;2022-12-05T17:31:12;2.20;99.90
21261;DHT22;10788;47.930;9.766;2022-12-05T17:33:39;2.20;99.90
21261;DHT22;10788;47.930;9.766;2022-12-05T17:36:05;2.20;99.90
21261;DHT22;10788;47.930;9.766;2022-12-05T17:38:30;2.20;99.90
21261;DHT22;10788;47.930;9.766;2022-12-05T17:40:56;2.10;99.90
21261;DHT22;10788;47.930;9.766;2022-12-05T17:43:21;2.20;99.90
21261;DHT22;10788;47.930;9.766;2022-12-05T17:45:47;2.20;99.90
21261;DHT22;10788;47.930;9.766;2022-12-05T17:48:14;2.20;99.90
21261;DHT22;10788;47.930;9.766;2022-12-05T17:50:41;2.20;99.90
21261;DHT22;10788;47.930;9.766;2022-12-05T17:53:15;2.20;99.90
21261;DHT22;10788;47.930;9.766;2022-12-05T17:55:41;2.20;99.90
21261;DHT22;10788;47.930;9.766;2022-12-05T17:58:08;2.30;99.90
21261;DHT22;10788;47.930;9.766;2022-12-05T18:00:35;2.30;99.90
21261;DHT22;10788;47.930;9.766;2022-12-05T18:03:01;2.20;99.90
21261;DHT22;10788;47.930;9.766;2022-12-05T18:05:27;2.30;99.90
21261;DHT22;10788;47.930;9.766;2022-12-05T18:07:52;2.30;99.90
21261;DHT22;10788;47.930;9.766;2022-12-05T18:10:20;2.30;99.90
21261;DHT22;10788;47.930;9.766;2022-12-05T18:12:47;2.30;99.90
21261;DHT22;10788;47.930;9.766;2022-12-05T18:15:13;2.30;99.90
21261;DHT22;10788;47.930;9.766;2022-12-05T18:17:39;2.20;99.90
21261;DHT22;10788;47.930;9.766;2022-12-05T18:20:07;2.20;99.90
21261;DHT22;10788;47.930;9.766;2022-12-05T18:22:33;2.20;99.90
21261;DHT22;10788;47.930;9.766;2022-12-05T18:24:59;2.30;99.90
21261;DHT22;10788;47.930;9.766;2022-12-05T18:27:26;2.20;99.90
21261;DHT22;10788;47.930;9.766;2022-12-05T18:29:51;2.20;99.90
21261;DHT22;10788;47.930;9.766;2022-12-05T18:32:18;2.20;99.90
21261;DHT22;10788;47.930;9.766;2022-12-05T18:34:44;2.20;99.90
21261;DHT22;10788;47.930;9.766;2022-12-05T18:37:10;2.20;99.90
21261;DHT22;10788;47.930;9.766;2022-12-05T18:39:36;2.20;99.90
21261;DHT22;10788;47.930;9.766;2022-12-05T18:42:03;2.20;99.90
21261;DHT22;10788;47.930;9.766;2022-12-05T18:44:29;2.30;99.90
21261;DHT22;10788;47.930;9.766;2022-12-05T18:46:55;2.30;99.90
21261;DHT22;10788;47.930;9.766;2022-12-05T18:49:21;2.40;99.90
21261;DHT22;10788;47.930;9.766;2022-12-05T18:51:46;2.40;99.90
21261;DHT22;10788;47.930;9.766;2022-12-05T18:54:12;2.50;99.90
21261;DHT22;10788;47.930;9.766;2022-12-05T18:56:38;2.50;99.90
21261;DHT22;10788;47.930;9.766;2022-12-05T18:59:05;2.50;99.90
21261;DHT22;10788;47.930;9.766;2022-12-05T19:01:36;2.60;99.90
21261;DHT22;10788;47.930;9.766;2022-12-05T19:04:03;2.60;99.90
21261;DHT22;10788;47.930;9.766;2022-12-05T19:06:31;2.60;99.90
21261;DHT22;10788;47.930;9.766;2022-12-05T19:08:59;2.50;99.90
21261;DHT22;10788;47.930;9.766;2022-12-05T19:11:26;2.60;99.90
21261;DHT22;10788;47.930;9.766;2022-12-05T19:13:57;2.60;99.90
21261;DHT22;10788;47.930;9.766;2022-12-05T19:16:23;2.50;99.90
21261;DHT22;10788;47.930;9.766;2022-12-05T19:18:53;2.50;99.90
21261;DHT22;10788;47.930;9.766;2022-12-05T19:21:25;2.50;99.90
21261;DHT22;10788;47.930;9.766;2022-12-05T19:23:51;2.50;99.90
21261;DHT22;10788;47.930;9.766;2022-12-05T19:26:17;2.50;99.90
21261;DHT22;10788;47.930;9.766;2022-12-05T19:28:42;2.50;99.90
21261;DHT22;10788;47.930;9.766;2022-12-05T19:31:13;2.40;99.90
21261;DHT22;10788;47.930;9.766;2022-12-05T19:33:44;2.40;99.90
21261;DHT22;10788;47.930;9.766;2022-12-05T19:36:18;2.40;99.90
21261;DHT22;10788;47.930;9.766;2022-12-05T19:38:45;2.50;99.90
21261;DHT22;10788;47.930;9.766;2022-12-05T19:41:13;2.50;99.90
21261;DHT22;10788;47.930;9.766;2022-12-05T19:43:39;2.50;99.90
21261;DHT22;10788;47.930;9.766;2022-12-05T19:46:10;2.50;99.90
21261;DHT22;10788;47.930;9.766;2022-12-05T19:48:36;2.50;99.90
21261;DHT22;10788;47.930;9.766;2022-12-05T19:51:03;2.40;99.90
21261;DHT22;10788;47.930;9.766;2022-12-05T19:53:34;2.40;99.90
21261;DHT22;10788;47.930;9.766;2022-12-05T19:56:05;2.30;99.90
21261;DHT22;10788;47.930;9.766;2022-12-05T19:58:34;2.30;99.90
21261;DHT22;10788;47.930;9.766;2022-12-05T20:01:22;2.30;99.90
21261;DHT22;10788;47.930;9.766;2022-12-05T20:03:51;2.30;99.90
21261;DHT22;10788;47.930;9.766;2022-12-05T20:06:17;2.30;99.90
21261;DHT22;10788;47.930;9.766;2022-12-05T20:08:44;2.30;99.90
21261;DHT22;10788;47.930;9.766;2022-12-05T20:11:17;2.40;99.90
21261;DHT22;10788;47.930;9.766;2022-12-05T20:13:44;2.30;99.90
21261;DHT22;10788;47.930;9.766;2022-12-05T20:16:11;2.30;99.90